Currently 46°F in Perris, California, USA
46°F
54°F / 45°F
calm
0.00"
Monday, March 25, 2019 7:21 AM PDT

Perris, California Weather Summary
Last 36 Hours

Temperature Winds Hourly Humidity Dewpoint
Time Report Norm Report Norm Max Gusts Precip. Rpt. Norm Rpt. Norm Pressure
1Mon 07:21 AM  46.0°F  48°F  calm  1 mph  none  0.00"  98%  86%  46°F  44°F  30.13"
Mon 07:00 AM  46.3°F  48°F  calm  1 mph  none  0.00"  99%  85%  46°F  43°F  30.13"
3Mon 06:29 AM  45.4°F  48°F  calm  1 mph  none  ----  98%  86%  45°F  44°F  30.12"
Mon 06:00 AM  47.0°F  48°F  calm  1 mph  3 mph  0.00"  98%  85%  46°F  44°F  30.12"
Mon 05:00 AM  48.4°F  49°F  calm  2 mph  2 mph  0.00"  98%  84%  48°F  44°F  30.12"
Mon 04:00 AM  50.6°F  50°F  calm  1 mph  5 mph  0.00"  97%  82%  50°F  44°F  30.12"
Mon 03:00 AM  50.9°F  51°F  calm  1 mph  3 mph  0.00"  96%  81%  50°F  45°F  30.13"
Mon 02:00 AM  51.7°F  52°F  calm  2 mph  2 mph  0.00"  96%  79%  50°F  45°F  30.14"
Mon 01:00 AM  53.4°F  53°F  1 mph N  2 mph  7 mph  0.00"  94%  76%  51°F  45°F  30.14"
2Mon 12:01 AM  54.4°F  54°F  3 mph W  2 mph  5 mph  ----  92%  73%  52°F  45°F  30.14"
Mon 12:00 AM  54.4°F  54°F  3 mph W  2 mph  6 mph  0.00"  92%  73%  52°F  45°F  30.14"
Sun 11:00 PM  55.3°F  55°F  2 mph SE  2 mph  3 mph  0.00"  88%  70%  52°F  45°F  30.14"
Sun 10:00 PM  58.6°F  57°F  calm  2 mph  5 mph  0.00"  81%  67%  53°F  45°F  30.14"
Sun 09:00 PM  59.7°F  58°F  1 mph NE  3 mph  3 mph  0.00"  78%  62%  52°F  45°F  30.14"
Sun 08:00 PM  61.6°F  61°F  calm  3 mph  6 mph  0.00"  72%  56%  52°F  44°F  30.11"
Sun 07:00 PM  64.7°F  64°F  3 mph W  4 mph  9 mph  0.00"  60%  48%  50°F  44°F  30.09"
Sun 06:00 PM  68.2°F  68°F  4 mph W  5 mph  10 mph  0.00"  55%  41%  51°F  43°F  30.08"
Sun 05:00 PM  70.9°F  70°F  5 mph W  5 mph  10 mph  0.00"  51%  37%  51°F  41°F  30.08"
Sun 04:00 PM  70.6°F  71°F  5 mph NW  5 mph  8 mph  0.00"  49%  35%  50°F  41°F  30.10"
Sun 03:00 PM  68.5°F  71°F  3 mph W  5 mph  9 mph  0.00"  56%  35%  52°F  41°F  30.12"
Sun 02:00 PM  66.6°F  71°F  3 mph SW  5 mph  8 mph  0.00"  60%  35%  52°F  41°F  30.14"
Sun 01:00 PM  62.0°F  69°F  4 mph NE  3 mph  9 mph  0.00"  65%  38%  50°F  41°F  30.17"
Sun 12:00 PM  60.5°F  67°F  5 mph NW  3 mph  7 mph  0.00"  71%  44%  51°F  43°F  30.18"
Sun 11:00 AM  57.2°F  63°F  6 mph SW  3 mph  9 mph  0.00"  75%  54%  49°F  45°F  30.19"
Sun 10:00 AM  52.7°F  59°F  1 mph SW  2 mph  5 mph  0.00"  97%  66%  52°F  47°F  30.19"
Sun 09:00 AM  51.0°F  53°F  calm  2 mph  none  0.00"  100%  79%  51°F  47°F  30.20"
Sun 08:00 AM  48.0°F  48°F  calm  1 mph  4 mph  0.00"  100%  86%  48°F  44°F  30.18"
Sun 07:00 AM  46.9°F  48°F  1 mph SE  1 mph  5 mph  0.00"  100%  85%  47°F  43°F  30.16"
Sun 06:00 AM  47.8°F  48°F  3 mph S  1 mph  6 mph  0.00"  100%  85%  48°F  44°F  30.13"
Sun 05:00 AM  48.1°F  49°F  3 mph S  1 mph  5 mph  0.00"  100%  84%  48°F  44°F  30.14"
Sun 04:00 AM  49.6°F  50°F  3 mph S  1 mph  5 mph  0.00"  99%  82%  49°F  44°F  30.14"
Sun 03:00 AM  50.2°F  50°F  2 mph SE  1 mph  6 mph  0.00"  99%  81%  50°F  45°F  30.14"
Sun 02:00 AM  50.4°F  52°F  4 mph S  1 mph  7 mph  0.00"  99%  78%  50°F  45°F  30.14"
Sun 01:00 AM  50.6°F  53°F  4 mph S  2 mph  6 mph  0.00"  98%  76%  50°F  45°F  30.12"
Sun 12:00 AM  50.4°F  54°F  3 mph S  2 mph  6 mph  0.00"  98%  73%  50°F  45°F  30.12"
Sat 11:00 PM  51.0°F  55°F  3 mph S  2 mph  9 mph  0.00"  97%  71%  50°F  45°F  30.12"
Sat 10:00 PM  52.7°F  57°F  5 mph SE  2 mph  8 mph  0.00"  96%  67%  52°F  45°F  30.12"
Sat 09:00 PM  53.3°F  58°F  calm  3 mph  7 mph  0.00"  90%  62%  50°F  45°F  30.12"
Sat 08:00 PM  55.1°F  61°F  4 mph NW  3 mph  10 mph  0.00"  86%  56%  51°F  44°F  30.09"

  1. Current weather data. No green row appears if the current weather data is also the high or low for the current day.
  2. High temperature for the current day.
  3. Low temperature for the current day.

The Perris, California weather pages are a service of WeatherCurrents. Perris is located in Southern California's Inland Empire, south of Riverside and north of Sun City, along the Interstate 215 freeway.
Copyright ©Mon Mar 25 07:21:17 PDT 2019  WeatherCurrents. All rights reserved. - Submit questions and comments - Privacy Policy

This page automatically refreshes every 10 minutes.